createdAt,value
2023-05-13T00:00:17.891Z,100.00
2023-05-13T00:02:44.340Z,100.00
2023-05-13T00:05:10.790Z,100.00
2023-05-13T00:07:37.203Z,100.00
2023-05-13T00:10:03.736Z,100.00
2023-05-13T00:12:31.088Z,100.00
2023-05-13T00:14:57.437Z,100.00
2023-05-13T00:17:23.734Z,100.00
2023-05-13T00:19:50.026Z,100.00
2023-05-13T00:22:16.638Z,100.00
2023-05-13T00:24:43.058Z,100.00
2023-05-13T00:27:10.066Z,100.00
2023-05-13T00:29:36.350Z,100.00
2023-05-13T00:32:03.208Z,100.00
2023-05-13T00:34:29.574Z,100.00
2023-05-13T00:36:55.996Z,100.00
2023-05-13T00:39:22.877Z,100.00
2023-05-13T00:41:49.313Z,100.00
2023-05-13T00:44:15.631Z,100.00
2023-05-13T00:46:42.520Z,100.00
2023-05-13T00:49:08.958Z,100.00
2023-05-13T00:51:36.405Z,100.00
2023-05-13T00:54:02.813Z,100.00
2023-05-13T00:56:29.328Z,100.00
2023-05-13T00:58:55.620Z,100.00
2023-05-13T01:01:50.940Z,100.00
2023-05-13T01:04:36.334Z,100.00
2023-05-13T01:07:26.486Z,100.00
2023-05-13T01:10:19.808Z,100.00
2023-05-13T01:12:46.738Z,100.00
2023-05-13T01:15:17.174Z,100.00
2023-05-13T01:18:02.246Z,100.00
2023-05-13T01:20:30.331Z,100.00
2023-05-13T01:22:56.920Z,100.00
2023-05-13T01:25:25.486Z,100.00
2023-05-13T01:27:53.223Z,100.00
2023-05-13T01:30:20.596Z,100.00
2023-05-13T01:32:48.335Z,100.00
2023-05-13T01:35:15.325Z,100.00
2023-05-13T01:37:42.581Z,100.00
2023-05-13T01:40:24.098Z,100.00
2023-05-13T01:42:56.787Z,100.00
2023-05-13T01:45:23.103Z,100.00
2023-05-13T01:47:49.418Z,100.00
2023-05-13T01:50:15.724Z,100.00
2023-05-13T01:52:42.100Z,100.00
2023-05-13T01:55:09.188Z,100.00
2023-05-13T01:57:35.540Z,100.00
2023-05-13T02:00:02.115Z,100.00
2023-05-13T02:02:28.678Z,100.00
2023-05-13T02:04:54.950Z,100.00
2023-05-13T02:07:21.400Z,100.00
2023-05-13T02:09:47.726Z,100.00
2023-05-13T02:12:14.021Z,100.00
2023-05-13T02:14:40.424Z,100.00
2023-05-13T02:17:06.910Z,100.00
2023-05-13T02:19:33.267Z,100.00
2023-05-13T02:21:59.563Z,100.00
2023-05-13T02:24:26.044Z,100.00
2023-05-13T02:26:52.998Z,100.00
2023-05-13T02:29:19.364Z,100.00
2023-05-13T02:31:45.685Z,100.00
2023-05-13T02:34:12.003Z,100.00
2023-05-13T02:36:38.489Z,100.00
2023-05-13T02:39:04.999Z,100.00
2023-05-13T02:41:31.270Z,100.00
2023-05-13T02:43:57.642Z,100.00
2023-05-13T02:46:24.068Z,100.00
2023-05-13T02:48:51.705Z,100.00
2023-05-13T02:51:18.056Z,100.00
2023-05-13T02:53:44.414Z,100.00
2023-05-13T02:56:10.725Z,100.00
2023-05-13T02:58:37.061Z,100.00
2023-05-13T03:01:03.480Z,100.00
2023-05-13T03:03:30.040Z,100.00
2023-05-13T03:05:56.642Z,100.00
2023-05-13T03:08:22.966Z,100.00
2023-05-13T03:10:49.339Z,100.00
2023-05-13T03:13:15.782Z,100.00
2023-05-13T03:15:44.219Z,100.00
2023-05-13T03:18:10.960Z,100.00
2023-05-13T03:20:37.369Z,100.00
2023-05-13T03:23:03.970Z,100.00
2023-05-13T03:25:30.294Z,100.00
2023-05-13T03:27:56.577Z,100.00
2023-05-13T03:30:23.055Z,100.00
2023-05-13T03:32:49.703Z,100.00
2023-05-13T03:35:16.063Z,100.00
2023-05-13T03:37:42.597Z,100.00
2023-05-13T03:40:09.361Z,100.00
2023-05-13T03:42:35.699Z,100.00
2023-05-13T03:45:01.965Z,100.00
2023-05-13T03:47:28.442Z,100.00
2023-05-13T03:49:54.841Z,100.00
2023-05-13T03:52:21.137Z,100.00
2023-05-13T03:54:47.408Z,100.00
2023-05-13T03:57:13.754Z,100.00
2023-05-13T03:59:40.619Z,100.00
2023-05-13T04:02:06.963Z,100.00
2023-05-13T04:04:33.721Z,100.00
2023-05-13T04:07:00.152Z,100.00
2023-05-13T04:09:26.742Z,100.00
2023-05-13T04:11:53.015Z,100.00
2023-05-13T04:14:19.324Z,100.00
2023-05-13T04:16:45.698Z,100.00
2023-05-13T04:19:12.112Z,100.00
2023-05-13T04:21:38.527Z,100.00
2023-05-13T04:24:05.266Z,100.00
2023-05-13T04:26:31.563Z,100.00
2023-05-13T04:28:57.983Z,100.00
2023-05-13T04:31:24.294Z,100.00
2023-05-13T04:33:50.577Z,100.00
2023-05-13T04:36:16.885Z,100.00
2023-05-13T04:38:43.194Z,100.00
2023-05-13T04:41:09.458Z,100.00
2023-05-13T04:43:35.798Z,100.00
2023-05-13T04:46:02.149Z,100.00
2023-05-13T04:48:28.545Z,100.00
2023-05-13T04:50:56.308Z,100.00
2023-05-13T04:53:23.005Z,100.00
2023-05-13T04:55:50.216Z,100.00
2023-05-13T04:58:16.581Z,100.00
2023-05-13T05:00:42.992Z,100.00
2023-05-13T05:03:09.373Z,100.00
2023-05-13T05:05:35.732Z,100.00
2023-05-13T05:08:02.014Z,100.00
2023-05-13T05:10:28.477Z,100.00
2023-05-13T05:12:54.852Z,100.00
2023-05-13T05:15:21.348Z,100.00
2023-05-13T05:17:47.778Z,100.00
2023-05-13T05:20:14.302Z,100.00
2023-05-13T05:22:41.994Z,100.00
2023-05-13T05:25:09.982Z,100.00
2023-05-13T05:27:36.245Z,100.00
2023-05-13T05:30:02.891Z,100.00
2023-05-13T05:32:29.331Z,100.00
2023-05-13T05:34:55.709Z,100.00
2023-05-13T05:37:22.098Z,100.00
2023-05-13T05:39:48.375Z,100.00
2023-05-13T05:42:14.704Z,100.00
2023-05-13T05:44:41.057Z,100.00
2023-05-13T05:47:07.357Z,100.00
2023-05-13T05:49:33.749Z,100.00
2023-05-13T05:52:00.060Z,100.00
2023-05-13T05:54:27.322Z,100.00
2023-05-13T05:56:53.788Z,100.00
2023-05-13T05:59:20.068Z,100.00
2023-05-13T06:01:46.352Z,100.00
2023-05-13T06:04:12.758Z,100.00
2023-05-13T06:06:40.266Z,100.00
2023-05-13T06:09:06.623Z,100.00
2023-05-13T06:11:32.993Z,100.00
2023-05-13T06:13:59.484Z,100.00
2023-05-13T06:16:25.909Z,100.00
2023-05-13T06:18:52.386Z,100.00
2023-05-13T06:21:18.753Z,100.00
2023-05-13T06:23:45.073Z,100.00
2023-05-13T06:26:11.361Z,100.00
2023-05-13T06:28:37.681Z,100.00
2023-05-13T06:31:04.008Z,100.00
2023-05-13T06:33:30.389Z,100.00
2023-05-13T06:35:56.795Z,100.00
2023-05-13T06:38:23.188Z,100.00
2023-05-13T06:40:49.479Z,100.00
2023-05-13T06:43:16.311Z,100.00
2023-05-13T06:45:42.656Z,100.00
2023-05-13T06:48:09.003Z,100.00
2023-05-13T06:50:35.335Z,100.00
2023-05-13T06:53:01.784Z,100.00
2023-05-13T06:55:28.085Z,100.00
2023-05-13T06:57:54.461Z,100.00
2023-05-13T07:00:21.317Z,100.00
2023-05-13T07:02:47.884Z,100.00
2023-05-13T07:05:16.253Z,100.00
2023-05-13T07:07:43.312Z,100.00
2023-05-13T07:10:09.925Z,100.00
2023-05-13T07:12:36.234Z,100.00
2023-05-13T07:15:03.896Z,100.00
2023-05-13T07:17:31.166Z,100.00
2023-05-13T07:19:57.776Z,100.00
2023-05-13T07:22:24.389Z,100.00
2023-05-13T07:24:50.717Z,100.00
2023-05-13T07:27:17.033Z,100.00
2023-05-13T07:29:43.285Z,100.00
2023-05-13T07:32:09.589Z,100.00
2023-05-13T07:34:36.097Z,100.00
2023-05-13T07:37:03.757Z,100.00
2023-05-13T07:39:30.363Z,100.00
2023-05-13T07:41:56.677Z,100.00
2023-05-13T07:44:23.130Z,100.00
2023-05-13T07:46:51.387Z,100.00
2023-05-13T07:49:17.655Z,100.00
2023-05-13T07:51:44.008Z,100.00
2023-05-13T07:54:10.522Z,100.00
2023-05-13T07:56:38.056Z,100.00
2023-05-13T07:59:04.936Z,100.00
2023-05-13T08:01:31.441Z,100.00
2023-05-13T08:03:57.953Z,100.00
2023-05-13T08:06:24.462Z,100.00
2023-05-13T08:08:50.806Z,100.00
2023-05-13T08:11:17.109Z,100.00
2023-05-13T08:13:43.395Z,100.00
2023-05-13T08:16:09.740Z,100.00
2023-05-13T08:18:36.447Z,100.00
2023-05-13T08:21:03.142Z,100.00
2023-05-13T08:23:40.932Z,100.00
2023-05-13T08:26:11.393Z,100.00
2023-05-13T08:28:37.902Z,100.00
2023-05-13T08:31:04.475Z,100.00
2023-05-13T08:33:31.182Z,100.00
2023-05-13T08:35:59.248Z,100.00
2023-05-13T08:38:25.529Z,100.00
2023-05-13T08:40:52.676Z,100.00
2023-05-13T08:43:19.421Z,100.00
2023-05-13T08:45:47.387Z,100.00
2023-05-13T08:48:18.473Z,100.00
2023-05-13T08:50:45.059Z,100.00
2023-05-13T08:53:12.378Z,100.00
2023-05-13T08:55:40.276Z,100.00
2023-05-13T08:58:07.039Z,100.00
2023-05-13T09:00:35.203Z,100.00
2023-05-13T09:03:01.782Z,100.00
2023-05-13T09:05:28.491Z,100.00
2023-05-13T09:07:55.557Z,92.49
2023-05-13T09:10:22.228Z,92.71
2023-05-13T09:12:53.976Z,96.50
2023-05-13T09:15:23.504Z,93.38
2023-05-13T09:18:04.276Z,90.51
2023-05-13T09:20:31.714Z,93.97
2023-05-13T09:23:01.487Z,92.64
2023-05-13T09:25:28.685Z,88.09
2023-05-13T09:28:07.481Z,92.38
2023-05-13T09:30:35.972Z,93.10
2023-05-13T09:33:20.582Z,91.00
2023-05-13T09:35:52.498Z,90.50
2023-05-13T09:38:26.721Z,90.21
2023-05-13T09:40:54.833Z,94.57
2023-05-13T09:43:24.125Z,97.71
2023-05-13T09:45:55.304Z,99.67
2023-05-13T09:48:26.398Z,94.90
2023-05-13T09:50:53.567Z,90.54
2023-05-13T09:53:21.146Z,87.57
2023-05-13T09:55:49.266Z,81.91
2023-05-13T09:58:16.035Z,80.60
2023-05-13T10:00:43.438Z,85.92
2023-05-13T10:03:10.689Z,79.47
2023-05-13T10:05:39.080Z,85.55
2023-05-13T10:08:08.760Z,82.81
2023-05-13T10:10:35.719Z,82.79
2023-05-13T10:13:11.997Z,84.60
2023-05-13T10:15:50.485Z,87.21
2023-05-13T10:18:18.020Z,77.79
2023-05-13T10:20:45.630Z,73.24
2023-05-13T10:23:12.378Z,74.98
2023-05-13T10:25:39.216Z,64.44
2023-05-13T10:28:05.937Z,70.01
2023-05-13T10:30:35.718Z,63.25
2023-05-13T10:33:03.786Z,65.34
2023-05-13T10:35:37.071Z,66.23
2023-05-13T10:38:17.222Z,66.82
2023-05-13T10:41:09.368Z,64.16
2023-05-13T10:43:37.331Z,66.68
2023-05-13T10:46:11.204Z,70.89
2023-05-13T10:48:50.906Z,68.63
2023-05-13T10:51:18.322Z,66.65
2023-05-13T10:53:48.814Z,60.38
2023-05-13T10:56:16.214Z,62.73
2023-05-13T10:58:42.538Z,66.29
2023-05-13T11:01:14.594Z,63.56
2023-05-13T11:03:41.704Z,65.78
2023-05-13T11:06:17.087Z,66.87
2023-05-13T11:08:45.604Z,67.87
2023-05-13T11:11:21.321Z,65.32
2023-05-13T11:13:54.765Z,65.58
2023-05-13T11:16:23.120Z,66.81
2023-05-13T11:18:51.309Z,62.79
2023-05-13T11:21:18.084Z,61.41
2023-05-13T11:23:56.960Z,59.14
2023-05-13T11:26:23.875Z,56.64
2023-05-13T11:28:55.069Z,54.57
2023-05-13T11:31:22.553Z,54.31
2023-05-13T11:34:06.586Z,51.48
2023-05-13T11:36:34.709Z,50.46
2023-05-13T11:39:13.601Z,55.32
2023-05-13T11:41:45.884Z,53.41
2023-05-13T11:44:17.612Z,53.54
2023-05-13T11:47:01.448Z,55.42
2023-05-13T11:49:35.340Z,54.84
2023-05-13T11:52:15.333Z,50.86
2023-05-13T11:54:48.189Z,49.89
2023-05-13T11:57:17.349Z,48.04
2023-05-13T12:00:01.799Z,48.31
2023-05-13T12:02:30.558Z,48.98
2023-05-13T12:05:01.833Z,48.08
2023-05-13T12:07:28.226Z,52.59
2023-05-13T12:09:57.674Z,49.04
2023-05-13T12:12:24.831Z,47.79
2023-05-13T12:14:51.603Z,45.57
2023-05-13T12:17:19.205Z,45.20
2023-05-13T12:20:11.078Z,43.16
2023-05-13T12:22:43.938Z,45.97
2023-05-13T12:25:38.732Z,49.17
2023-05-13T12:28:25.202Z,53.23
2023-05-13T12:30:51.589Z,55.30
2023-05-13T12:33:20.876Z,54.67
2023-05-13T12:35:50.059Z,53.32
2023-05-13T12:38:18.298Z,49.03
2023-05-13T12:40:46.025Z,44.82
2023-05-13T12:43:13.205Z,44.40
2023-05-13T12:45:44.740Z,44.36
2023-05-13T12:48:11.852Z,45.83
2023-05-13T12:50:38.392Z,45.14
2023-05-13T12:53:05.755Z,43.07
2023-05-13T12:55:32.321Z,46.14
2023-05-13T12:58:03.834Z,45.56
2023-05-13T13:00:31.024Z,43.44
2023-05-13T13:02:57.718Z,45.15
2023-05-13T13:05:25.241Z,45.43
2023-05-13T13:07:51.871Z,44.79
2023-05-13T13:10:18.338Z,44.02
2023-05-13T13:12:44.768Z,47.00
2023-05-13T13:15:11.678Z,45.45
2023-05-13T13:17:38.281Z,47.95
2023-05-13T13:20:06.743Z,50.48
2023-05-13T13:22:34.071Z,45.87
2023-05-13T13:25:00.813Z,41.43
2023-05-13T13:27:27.118Z,43.09
2023-05-13T13:29:53.395Z,43.73
2023-05-13T13:32:19.885Z,44.17
2023-05-13T13:34:46.532Z,43.89
2023-05-13T13:37:12.873Z,42.88
2023-05-13T13:39:39.154Z,43.17
2023-05-13T13:42:05.694Z,46.25
2023-05-13T13:44:32.605Z,42.68
2023-05-13T13:46:59.404Z,42.23
2023-05-13T13:49:25.690Z,42.96
2023-05-13T13:51:52.986Z,41.90
2023-05-13T13:54:19.584Z,39.55
2023-05-13T13:56:46.095Z,41.63
2023-05-13T13:59:12.404Z,43.28
2023-05-13T14:01:40.214Z,42.47
2023-05-13T14:04:11.369Z,41.27
2023-05-13T14:06:37.989Z,40.71
2023-05-13T14:09:05.771Z,41.14
2023-05-13T14:11:32.951Z,40.40
2023-05-13T14:13:59.428Z,42.03
2023-05-13T14:16:25.904Z,40.22
2023-05-13T14:18:52.415Z,41.98
2023-05-13T14:21:18.778Z,39.33
2023-05-13T14:23:45.136Z,38.61
2023-05-13T14:26:13.167Z,40.26
2023-05-13T14:28:39.455Z,39.50
2023-05-13T14:31:05.815Z,38.97
2023-05-13T14:33:32.240Z,38.03
2023-05-13T14:35:58.589Z,38.25
2023-05-13T14:38:27.000Z,38.20
2023-05-13T14:40:55.670Z,38.70
2023-05-13T14:43:23.062Z,39.78
2023-05-13T14:45:49.537Z,39.17
2023-05-13T14:48:16.404Z,38.38
2023-05-13T14:50:44.909Z,38.08
2023-05-13T14:53:11.738Z,39.55
2023-05-13T14:55:38.774Z,40.58
2023-05-13T14:58:07.149Z,40.07
2023-05-13T15:00:33.445Z,39.14
2023-05-13T15:03:00.979Z,40.15
2023-05-13T15:05:27.733Z,38.96
2023-05-13T15:07:54.259Z,40.23
2023-05-13T15:10:20.716Z,39.19
2023-05-13T15:12:47.154Z,39.23
2023-05-13T15:15:13.514Z,40.33
2023-05-13T15:17:39.939Z,39.53
2023-05-13T15:20:07.092Z,39.88
2023-05-13T15:22:34.316Z,40.57
2023-05-13T15:25:00.814Z,38.67
2023-05-13T15:27:28.184Z,38.62
2023-05-13T15:29:54.851Z,40.47
2023-05-13T15:32:21.144Z,41.76
2023-05-13T15:34:47.482Z,40.52
2023-05-13T15:37:13.846Z,41.27
2023-05-13T15:39:40.214Z,39.61
2023-05-13T15:42:06.826Z,39.40
2023-05-13T15:44:33.103Z,39.87
2023-05-13T15:46:59.573Z,40.36
2023-05-13T15:49:26.084Z,39.78
2023-05-13T15:51:54.334Z,39.13
2023-05-13T15:54:22.200Z,38.94
2023-05-13T15:56:48.569Z,40.79
2023-05-13T15:59:14.896Z,41.69
2023-05-13T16:01:41.715Z,41.09
2023-05-13T16:04:08.323Z,40.24
2023-05-13T16:06:34.666Z,40.55
2023-05-13T16:09:01.913Z,40.61
2023-05-13T16:11:29.402Z,40.55
2023-05-13T16:13:55.965Z,40.39
2023-05-13T16:16:22.564Z,42.43
2023-05-13T16:18:49.091Z,40.43
2023-05-13T16:21:15.650Z,40.92
2023-05-13T16:23:41.974Z,41.60
2023-05-13T16:26:08.377Z,41.91
2023-05-13T16:28:34.643Z,40.90
2023-05-13T16:31:01.299Z,40.86
2023-05-13T16:33:27.950Z,40.42
2023-05-13T16:35:54.397Z,41.75
2023-05-13T16:38:20.731Z,41.99
2023-05-13T16:40:47.228Z,39.50
2023-05-13T16:43:13.579Z,39.85
2023-05-13T16:45:39.942Z,41.47
2023-05-13T16:48:06.475Z,40.14
2023-05-13T16:50:32.928Z,41.07
2023-05-13T16:52:59.574Z,41.00
2023-05-13T16:55:26.038Z,41.79
2023-05-13T16:57:53.854Z,40.79
2023-05-13T17:00:20.666Z,43.10
2023-05-13T17:02:47.371Z,46.03
2023-05-13T17:05:13.766Z,50.19
2023-05-13T17:07:40.054Z,51.07
2023-05-13T17:10:07.072Z,52.16
2023-05-13T17:12:33.379Z,53.92
2023-05-13T17:14:59.723Z,54.69
2023-05-13T17:17:26.261Z,57.34
2023-05-13T17:19:52.549Z,57.72
2023-05-13T17:22:18.866Z,57.01
2023-05-13T17:24:45.223Z,56.17
2023-05-13T17:27:11.510Z,58.63
2023-05-13T17:29:37.816Z,58.81
2023-05-13T17:32:04.426Z,59.54
2023-05-13T17:34:30.787Z,63.02
2023-05-13T17:36:57.092Z,63.70
2023-05-13T17:39:23.434Z,63.63
2023-05-13T17:41:49.761Z,63.07
2023-05-13T17:44:16.150Z,64.32
2023-05-13T17:46:42.482Z,66.81
2023-05-13T17:49:08.956Z,74.09
2023-05-13T17:51:35.617Z,73.05
2023-05-13T17:54:01.991Z,72.12
2023-05-13T17:56:28.336Z,71.37
2023-05-13T17:58:54.732Z,76.97
2023-05-13T18:01:21.683Z,75.03
2023-05-13T18:03:48.165Z,75.38
2023-05-13T18:06:14.530Z,80.45
2023-05-13T18:08:40.881Z,83.33
2023-05-13T18:11:07.331Z,80.10
2023-05-13T18:13:35.312Z,86.28
2023-05-13T18:16:01.681Z,86.29
2023-05-13T18:18:28.027Z,89.83
2023-05-13T18:20:54.437Z,89.71
2023-05-13T18:23:20.784Z,88.72
2023-05-13T18:25:55.542Z,95.23
2023-05-13T18:28:22.530Z,86.92
2023-05-13T18:30:48.883Z,97.47
2023-05-13T18:33:15.438Z,96.95
2023-05-13T18:35:41.797Z,100.00
2023-05-13T18:38:08.293Z,97.27
2023-05-13T18:40:34.559Z,99.31
2023-05-13T18:43:00.920Z,100.00
2023-05-13T18:45:27.589Z,100.00
2023-05-13T18:47:53.970Z,100.00
2023-05-13T18:50:21.336Z,100.00
2023-05-13T18:52:47.744Z,100.00
2023-05-13T18:55:14.064Z,100.00
2023-05-13T18:57:40.353Z,100.00
2023-05-13T19:00:07.330Z,100.00
2023-05-13T19:02:34.952Z,100.00
2023-05-13T19:05:01.503Z,100.00
2023-05-13T19:07:27.812Z,100.00
2023-05-13T19:09:54.115Z,100.00
2023-05-13T19:12:20.454Z,100.00
2023-05-13T19:14:46.754Z,100.00
2023-05-13T19:17:13.288Z,100.00
2023-05-13T19:19:40.051Z,100.00
2023-05-13T19:22:06.469Z,100.00
2023-05-13T19:24:32.785Z,100.00
2023-05-13T19:26:59.169Z,100.00
2023-05-13T19:29:25.664Z,100.00
2023-05-13T19:31:52.334Z,100.00
2023-05-13T19:34:18.824Z,100.00
2023-05-13T19:36:46.268Z,100.00
2023-05-13T19:39:12.663Z,100.00
2023-05-13T19:41:39.191Z,100.00
2023-05-13T19:44:05.592Z,100.00
2023-05-13T19:46:31.970Z,100.00
2023-05-13T19:48:58.250Z,100.00
2023-05-13T19:51:26.588Z,100.00
2023-05-13T19:53:52.999Z,100.00
2023-05-13T19:56:19.304Z,100.00
2023-05-13T19:58:45.714Z,100.00
2023-05-13T20:01:14.208Z,100.00
2023-05-13T20:03:41.511Z,100.00
2023-05-13T20:06:07.952Z,100.00
2023-05-13T20:08:35.805Z,100.00
2023-05-13T20:11:02.245Z,100.00
2023-05-13T20:13:28.561Z,100.00
2023-05-13T20:15:54.837Z,100.00
2023-05-13T20:18:21.230Z,100.00
2023-05-13T20:20:48.110Z,100.00
2023-05-13T20:23:14.700Z,100.00
2023-05-13T20:25:41.419Z,100.00
2023-05-13T20:28:07.861Z,100.00
2023-05-13T20:30:34.164Z,100.00
2023-05-13T20:33:00.936Z,100.00
2023-05-13T20:35:27.393Z,100.00
2023-05-13T20:37:54.214Z,100.00
2023-05-13T20:40:20.670Z,100.00
2023-05-13T20:42:47.748Z,100.00
2023-05-13T20:45:14.161Z,100.00
2023-05-13T20:47:40.442Z,100.00
2023-05-13T20:50:07.814Z,100.00
2023-05-13T20:52:34.155Z,100.00
2023-05-13T20:55:00.485Z,100.00
2023-05-13T20:57:26.767Z,100.00
2023-05-13T20:59:53.084Z,100.00
2023-05-13T21:02:19.447Z,100.00
2023-05-13T21:04:45.861Z,100.00
2023-05-13T21:07:12.234Z,100.00
2023-05-13T21:09:39.586Z,100.00
2023-05-13T21:12:06.293Z,100.00
2023-05-13T21:14:32.853Z,100.00
2023-05-13T21:17:02.807Z,100.00
2023-05-13T21:19:30.003Z,100.00
2023-05-13T21:21:56.508Z,100.00
2023-05-13T21:24:22.824Z,100.00
2023-05-13T21:26:49.684Z,100.00
2023-05-13T21:29:18.508Z,100.00
2023-05-13T21:31:45.907Z,100.00
2023-05-13T21:34:12.452Z,100.00
2023-05-13T21:36:39.282Z,100.00
2023-05-13T21:39:06.844Z,100.00
2023-05-13T21:41:33.175Z,100.00
2023-05-13T21:43:59.437Z,100.00
2023-05-13T21:46:25.734Z,100.00
2023-05-13T21:48:52.167Z,100.00
2023-05-13T21:51:18.546Z,100.00
2023-05-13T21:53:44.817Z,100.00
2023-05-13T21:56:11.155Z,100.00
2023-05-13T21:58:37.487Z,100.00
2023-05-13T22:01:03.950Z,100.00
2023-05-13T22:03:30.316Z,100.00
2023-05-13T22:05:56.696Z,100.00
2023-05-13T22:08:23.058Z,100.00
2023-05-13T22:10:49.469Z,100.00
2023-05-13T22:13:15.982Z,100.00
2023-05-13T22:15:42.337Z,100.00
2023-05-13T22:18:08.788Z,100.00
2023-05-13T22:20:36.019Z,100.00
2023-05-13T22:23:02.341Z,100.00
2023-05-13T22:25:28.587Z,100.00
2023-05-13T22:27:54.924Z,100.00
2023-05-13T22:30:21.344Z,100.00
2023-05-13T22:32:48.074Z,100.00
2023-05-13T22:35:14.345Z,100.00
2023-05-13T22:37:40.748Z,100.00
2023-05-13T22:40:07.668Z,100.00
2023-05-13T22:42:33.974Z,100.00
2023-05-13T22:45:00.405Z,100.00
2023-05-13T22:47:26.754Z,100.00
2023-05-13T22:49:53.083Z,100.00
2023-05-13T22:52:19.539Z,100.00
2023-05-13T22:54:45.798Z,100.00
2023-05-13T22:57:12.107Z,100.00
2023-05-13T22:59:38.402Z,100.00
2023-05-13T23:02:04.831Z,100.00
2023-05-13T23:04:31.573Z,100.00
2023-05-13T23:06:58.021Z,100.00
2023-05-13T23:09:24.327Z,100.00
2023-05-13T23:11:50.641Z,100.00
2023-05-13T23:14:16.936Z,100.00
2023-05-13T23:16:43.241Z,100.00
2023-05-13T23:19:10.516Z,100.00
2023-05-13T23:21:36.905Z,100.00
2023-05-13T23:24:03.707Z,100.00
2023-05-13T23:26:31.095Z,100.00
2023-05-13T23:28:57.412Z,100.00
2023-05-13T23:31:23.774Z,100.00
2023-05-13T23:33:50.156Z,100.00
2023-05-13T23:36:16.504Z,100.00
2023-05-13T23:38:42.909Z,100.00
2023-05-13T23:41:09.262Z,100.00
2023-05-13T23:43:35.615Z,100.00
2023-05-13T23:46:02.000Z,100.00
2023-05-13T23:48:28.380Z,100.00
2023-05-13T23:50:54.675Z,100.00
2023-05-13T23:53:20.945Z,100.00
2023-05-13T23:55:47.220Z,100.00
2023-05-13T23:58:13.532Z,100.00
